sensor_id;sensor_type;location;lat;lon;timestamp;P1;durP1;ratioP1;P2;durP2;ratioP2
49440;SDS011;35317;51.978;6.296;2022-11-22T00:00:54;28.80;;;11.23;;
49440;SDS011;35317;51.978;6.296;2022-11-22T00:05:55;28.10;;;11.18;;
49440;SDS011;35317;51.978;6.296;2022-11-22T00:10:56;30.55;;;11.25;;
49440;SDS011;35317;51.978;6.296;2022-11-22T00:16:00;25.40;;;10.65;;
49440;SDS011;35317;51.978;6.296;2022-11-22T00:21:03;25.80;;;10.88;;
49440;SDS011;35317;51.978;6.296;2022-11-22T00:26:06;35.85;;;11.90;;
49440;SDS011;35317;51.978;6.296;2022-11-22T00:31:10;26.38;;;10.93;;
49440;SDS011;35317;51.978;6.296;2022-11-22T00:36:11;26.73;;;10.57;;
49440;SDS011;35317;51.978;6.296;2022-11-22T00:41:12;33.08;;;11.32;;
49440;SDS011;35317;51.978;6.296;2022-11-22T00:46:12;32.83;;;12.13;;
49440;SDS011;35317;51.978;6.296;2022-11-22T00:51:13;32.78;;;12.93;;
49440;SDS011;35317;51.978;6.296;2022-11-22T00:56:14;31.02;;;12.27;;
49440;SDS011;35317;51.978;6.296;2022-11-22T01:01:15;38.63;;;12.07;;
49440;SDS011;35317;51.978;6.296;2022-11-22T01:06:15;36.67;;;12.85;;
49440;SDS011;35317;51.978;6.296;2022-11-22T01:11:17;27.92;;;12.13;;
49440;SDS011;35317;51.978;6.296;2022-11-22T01:16:18;38.03;;;14.70;;
49440;SDS011;35317;51.978;6.296;2022-11-22T01:21:19;38.45;;;15.60;;
49440;SDS011;35317;51.978;6.296;2022-11-22T01:26:19;36.72;;;14.23;;
49440;SDS011;35317;51.978;6.296;2022-11-22T01:31:20;27.88;;;12.55;;
49440;SDS011;35317;51.978;6.296;2022-11-22T01:36:21;38.65;;;11.73;;
49440;SDS011;35317;51.978;6.296;2022-11-22T01:41:22;34.08;;;12.00;;
49440;SDS011;35317;51.978;6.296;2022-11-22T01:46:29;31.20;;;11.75;;
49440;SDS011;35317;51.978;6.296;2022-11-22T01:51:41;33.55;;;12.88;;
49440;SDS011;35317;51.978;6.296;2022-11-22T01:56:47;25.83;;;11.90;;
49440;SDS011;35317;51.978;6.296;2022-11-22T02:01:53;36.00;;;12.88;;
49440;SDS011;35317;51.978;6.296;2022-11-22T02:12:16;30.02;;;11.82;;
49440;SDS011;35317;51.978;6.296;2022-11-22T02:17:23;23.88;;;11.30;;
49440;SDS011;35317;51.978;6.296;2022-11-22T02:27:55;31.10;;;13.07;;
49440;SDS011;35317;51.978;6.296;2022-11-22T02:32:55;36.40;;;13.07;;
49440;SDS011;35317;51.978;6.296;2022-11-22T02:37:57;30.00;;;13.85;;
49440;SDS011;35317;51.978;6.296;2022-11-22T02:43:02;26.25;;;12.15;;
49440;SDS011;35317;51.978;6.296;2022-11-22T02:48:25;33.38;;;11.68;;
49440;SDS011;35317;51.978;6.296;2022-11-22T02:53:28;37.08;;;13.90;;
49440;SDS011;35317;51.978;6.296;2022-11-22T02:58:29;43.50;;;14.70;;
49440;SDS011;35317;51.978;6.296;2022-11-22T03:03:31;36.53;;;14.07;;
49440;SDS011;35317;51.978;6.296;2022-11-22T03:08:32;32.03;;;13.77;;
49440;SDS011;35317;51.978;6.296;2022-11-22T03:13:33;38.15;;;14.77;;
49440;SDS011;35317;51.978;6.296;2022-11-22T03:18:35;37.97;;;15.15;;
49440;SDS011;35317;51.978;6.296;2022-11-22T03:23:36;46.80;;;15.60;;
49440;SDS011;35317;51.978;6.296;2022-11-22T03:28:37;50.97;;;15.95;;
49440;SDS011;35317;51.978;6.296;2022-11-22T03:33:38;40.25;;;16.67;;
49440;SDS011;35317;51.978;6.296;2022-11-22T03:38:39;42.13;;;15.23;;
49440;SDS011;35317;51.978;6.296;2022-11-22T03:43:39;43.95;;;12.73;;
49440;SDS011;35317;51.978;6.296;2022-11-22T03:48:40;43.85;;;13.43;;
49440;SDS011;35317;51.978;6.296;2022-11-22T03:53:41;34.45;;;10.73;;
49440;SDS011;35317;51.978;6.296;2022-11-22T03:58:42;33.00;;;10.02;;
49440;SDS011;35317;51.978;6.296;2022-11-22T04:03:42;32.20;;;9.45;;
49440;SDS011;35317;51.978;6.296;2022-11-22T04:08:43;29.58;;;9.02;;
49440;SDS011;35317;51.978;6.296;2022-11-22T04:13:44;40.08;;;9.07;;
49440;SDS011;35317;51.978;6.296;2022-11-22T04:19:03;27.48;;;8.45;;
49440;SDS011;35317;51.978;6.296;2022-11-22T04:24:05;53.35;;;9.50;;
49440;SDS011;35317;51.978;6.296;2022-11-22T04:29:29;35.58;;;7.90;;
49440;SDS011;35317;51.978;6.296;2022-11-22T04:34:30;38.60;;;6.97;;
49440;SDS011;35317;51.978;6.296;2022-11-22T04:39:31;38.97;;;8.07;;
49440;SDS011;35317;51.978;6.296;2022-11-22T04:44:32;31.90;;;7.35;;
49440;SDS011;35317;51.978;6.296;2022-11-22T04:49:41;32.20;;;7.35;;
49440;SDS011;35317;51.978;6.296;2022-11-22T04:54:42;40.55;;;7.47;;
49440;SDS011;35317;51.978;6.296;2022-11-22T04:59:43;29.00;;;6.05;;
49440;SDS011;35317;51.978;6.296;2022-11-22T05:04:44;37.15;;;7.88;;
49440;SDS011;35317;51.978;6.296;2022-11-22T05:09:44;40.75;;;7.25;;
49440;SDS011;35317;51.978;6.296;2022-11-22T05:14:45;24.77;;;6.10;;
49440;SDS011;35317;51.978;6.296;2022-11-22T05:19:46;34.55;;;6.75;;
49440;SDS011;35317;51.978;6.296;2022-11-22T05:24:47;42.60;;;7.43;;
49440;SDS011;35317;51.978;6.296;2022-11-22T05:29:47;41.22;;;8.07;;
49440;SDS011;35317;51.978;6.296;2022-11-22T05:34:48;37.92;;;6.00;;
49440;SDS011;35317;51.978;6.296;2022-11-22T05:39:49;30.92;;;7.03;;
49440;SDS011;35317;51.978;6.296;2022-11-22T05:44:50;39.80;;;7.47;;
49440;SDS011;35317;51.978;6.296;2022-11-22T05:49:50;35.78;;;7.03;;
49440;SDS011;35317;51.978;6.296;2022-11-22T05:54:51;36.90;;;8.50;;
49440;SDS011;35317;51.978;6.296;2022-11-22T05:59:52;26.73;;;5.90;;
49440;SDS011;35317;51.978;6.296;2022-11-22T06:04:53;32.95;;;7.10;;
49440;SDS011;35317;51.978;6.296;2022-11-22T06:09:54;31.02;;;5.82;;
49440;SDS011;35317;51.978;6.296;2022-11-22T06:14:54;34.70;;;6.15;;
49440;SDS011;35317;51.978;6.296;2022-11-22T06:19:55;33.22;;;5.55;;
49440;SDS011;35317;51.978;6.296;2022-11-22T06:24:56;34.95;;;7.10;;
49440;SDS011;35317;51.978;6.296;2022-11-22T06:29:56;28.75;;;6.18;;
49440;SDS011;35317;51.978;6.296;2022-11-22T06:34:57;26.75;;;5.53;;
49440;SDS011;35317;51.978;6.296;2022-11-22T06:39:59;30.48;;;5.25;;
49440;SDS011;35317;51.978;6.296;2022-11-22T06:45:00;32.63;;;5.60;;
49440;SDS011;35317;51.978;6.296;2022-11-22T06:50:01;24.55;;;4.70;;
49440;SDS011;35317;51.978;6.296;2022-11-22T06:55:01;22.92;;;4.22;;
49440;SDS011;35317;51.978;6.296;2022-11-22T07:00:02;28.25;;;5.50;;
49440;SDS011;35317;51.978;6.296;2022-11-22T07:05:03;23.52;;;5.55;;
49440;SDS011;35317;51.978;6.296;2022-11-22T07:10:04;34.00;;;5.70;;
49440;SDS011;35317;51.978;6.296;2022-11-22T07:15:06;23.30;;;5.00;;
49440;SDS011;35317;51.978;6.296;2022-11-22T07:20:07;34.10;;;6.97;;
49440;SDS011;35317;51.978;6.296;2022-11-22T07:25:08;31.20;;;7.55;;
49440;SDS011;35317;51.978;6.296;2022-11-22T07:30:22;29.52;;;6.88;;
49440;SDS011;35317;51.978;6.296;2022-11-22T07:35:22;36.08;;;7.18;;
49440;SDS011;35317;51.978;6.296;2022-11-22T07:40:23;33.70;;;7.65;;
49440;SDS011;35317;51.978;6.296;2022-11-22T07:45:24;38.28;;;6.85;;
49440;SDS011;35317;51.978;6.296;2022-11-22T07:55:50;29.08;;;6.70;;
49440;SDS011;35317;51.978;6.296;2022-11-22T08:00:51;24.92;;;5.50;;
49440;SDS011;35317;51.978;6.296;2022-11-22T08:05:57;27.33;;;5.28;;
49440;SDS011;35317;51.978;6.296;2022-11-22T08:11:02;30.00;;;5.80;;
49440;SDS011;35317;51.978;6.296;2022-11-22T08:16:09;27.25;;;4.93;;
49440;SDS011;35317;51.978;6.296;2022-11-22T08:21:14;26.40;;;4.53;;
49440;SDS011;35317;51.978;6.296;2022-11-22T08:26:16;17.52;;;3.67;;
49440;SDS011;35317;51.978;6.296;2022-11-22T08:31:18;14.15;;;3.80;;
49440;SDS011;35317;51.978;6.296;2022-11-22T08:36:18;18.73;;;3.33;;
49440;SDS011;35317;51.978;6.296;2022-11-22T08:41:19;22.90;;;4.70;;
49440;SDS011;35317;51.978;6.296;2022-11-22T08:46:20;16.95;;;4.80;;
49440;SDS011;35317;51.978;6.296;2022-11-22T08:51:21;30.38;;;5.15;;
49440;SDS011;35317;51.978;6.296;2022-11-22T08:56:21;21.88;;;4.93;;
49440;SDS011;35317;51.978;6.296;2022-11-22T09:01:22;21.08;;;5.38;;
49440;SDS011;35317;51.978;6.296;2022-11-22T09:06:23;23.27;;;5.03;;
49440;SDS011;35317;51.978;6.296;2022-11-22T09:11:24;22.88;;;5.60;;
49440;SDS011;35317;51.978;6.296;2022-11-22T09:16:26;22.35;;;5.70;;
49440;SDS011;35317;51.978;6.296;2022-11-22T09:21:27;20.73;;;5.50;;
49440;SDS011;35317;51.978;6.296;2022-11-22T09:26:28;23.13;;;5.05;;
49440;SDS011;35317;51.978;6.296;2022-11-22T09:31:29;23.63;;;5.82;;
49440;SDS011;35317;51.978;6.296;2022-11-22T09:36:33;16.60;;;5.05;;
49440;SDS011;35317;51.978;6.296;2022-11-22T09:57:58;18.70;;;4.03;;
49440;SDS011;35317;51.978;6.296;2022-11-22T10:03:06;12.27;;;2.70;;
49440;SDS011;35317;51.978;6.296;2022-11-22T10:08:28;14.02;;;2.60;;
49440;SDS011;35317;51.978;6.296;2022-11-22T10:13:52;21.52;;;3.22;;
49440;SDS011;35317;51.978;6.296;2022-11-22T10:19:02;9.20;;;2.17;;
49440;SDS011;35317;51.978;6.296;2022-11-22T10:24:13;16.33;;;2.80;;
49440;SDS011;35317;51.978;6.296;2022-11-22T10:29:19;17.83;;;2.27;;
49440;SDS011;35317;51.978;6.296;2022-11-22T10:56:40;14.20;;;1.98;;
49440;SDS011;35317;51.978;6.296;2022-11-22T11:01:53;11.45;;;2.50;;
49440;SDS011;35317;51.978;6.296;2022-11-22T11:07:21;9.13;;;1.98;;
49440;SDS011;35317;51.978;6.296;2022-11-22T11:12:26;14.30;;;1.77;;
49440;SDS011;35317;51.978;6.296;2022-11-22T11:17:41;9.25;;;2.15;;
49440;SDS011;35317;51.978;6.296;2022-11-22T11:22:44;10.90;;;2.23;;
49440;SDS011;35317;51.978;6.296;2022-11-22T11:27:45;8.35;;;1.80;;
49440;SDS011;35317;51.978;6.296;2022-11-22T11:32:53;12.23;;;2.28;;
49440;SDS011;35317;51.978;6.296;2022-11-22T11:37:55;9.23;;;1.70;;
49440;SDS011;35317;51.978;6.296;2022-11-22T11:48:25;28.38;;;8.48;;
49440;SDS011;35317;51.978;6.296;2022-11-22T11:53:28;9.18;;;1.92;;
49440;SDS011;35317;51.978;6.296;2022-11-22T11:58:28;11.85;;;2.38;;
49440;SDS011;35317;51.978;6.296;2022-11-22T12:03:31;6.25;;;2.05;;
49440;SDS011;35317;51.978;6.296;2022-11-22T12:08:34;8.90;;;2.22;;
49440;SDS011;35317;51.978;6.296;2022-11-22T12:13:36;7.07;;;1.70;;
49440;SDS011;35317;51.978;6.296;2022-11-22T12:18:40;11.43;;;2.50;;
49440;SDS011;35317;51.978;6.296;2022-11-22T12:24:11;7.78;;;1.65;;
49440;SDS011;35317;51.978;6.296;2022-11-22T12:29:31;6.25;;;1.55;;
49440;SDS011;35317;51.978;6.296;2022-11-22T12:34:35;5.72;;;1.50;;
49440;SDS011;35317;51.978;6.296;2022-11-22T12:39:57;4.68;;;1.20;;
49440;SDS011;35317;51.978;6.296;2022-11-22T12:45:06;4.05;;;1.20;;
49440;SDS011;35317;51.978;6.296;2022-11-22T12:50:25;5.22;;;1.20;;
49440;SDS011;35317;51.978;6.296;2022-11-22T12:55:35;4.10;;;1.02;;
49440;SDS011;35317;51.978;6.296;2022-11-22T13:07:24;4.80;;;1.23;;
49440;SDS011;35317;51.978;6.296;2022-11-22T13:12:44;8.27;;;1.40;;
49440;SDS011;35317;51.978;6.296;2022-11-22T13:17:46;8.55;;;1.33;;
49440;SDS011;35317;51.978;6.296;2022-11-22T13:28:39;7.38;;;2.28;;
49440;SDS011;35317;51.978;6.296;2022-11-22T13:33:52;7.00;;;1.23;;
49440;SDS011;35317;51.978;6.296;2022-11-22T13:38:56;8.03;;;1.90;;
49440;SDS011;35317;51.978;6.296;2022-11-22T13:44:16;4.45;;;1.30;;
49440;SDS011;35317;51.978;6.296;2022-11-22T13:49:34;3.50;;;1.20;;
49440;SDS011;35317;51.978;6.296;2022-11-22T13:59:58;6.90;;;2.03;;
49440;SDS011;35317;51.978;6.296;2022-11-22T14:05:17;4.60;;;1.05;;
49440;SDS011;35317;51.978;6.296;2022-11-22T14:15:46;2.58;;;1.10;;
49440;SDS011;35317;51.978;6.296;2022-11-22T14:21:08;2.20;;;1.10;;
49440;SDS011;35317;51.978;6.296;2022-11-22T14:26:54;4.03;;;1.17;;
49440;SDS011;35317;51.978;6.296;2022-11-22T14:32:15;3.53;;;0.90;;
49440;SDS011;35317;51.978;6.296;2022-11-22T14:47:46;2.72;;;1.10;;
49440;SDS011;35317;51.978;6.296;2022-11-22T14:52:51;2.15;;;0.80;;
49440;SDS011;35317;51.978;6.296;2022-11-22T14:58:00;2.25;;;0.88;;
49440;SDS011;35317;51.978;6.296;2022-11-22T15:14:35;2.92;;;1.02;;
49440;SDS011;35317;51.978;6.296;2022-11-22T15:21:09;3.55;;;1.20;;
49440;SDS011;35317;51.978;6.296;2022-11-22T15:25:41;3.17;;;1.40;;
49440;SDS011;35317;51.978;6.296;2022-11-22T15:30:44;3.28;;;1.02;;
49440;SDS011;35317;51.978;6.296;2022-11-22T15:36:33;2.47;;;0.93;;
49440;SDS011;35317;51.978;6.296;2022-11-22T15:41:29;1.67;;;1.08;;
49440;SDS011;35317;51.978;6.296;2022-11-22T15:46:36;1.75;;;0.60;;
49440;SDS011;35317;51.978;6.296;2022-11-22T15:57:30;1.33;;;0.60;;
49440;SDS011;35317;51.978;6.296;2022-11-22T16:02:36;1.35;;;0.80;;
49440;SDS011;35317;51.978;6.296;2022-11-22T16:07:47;2.28;;;0.70;;
49440;SDS011;35317;51.978;6.296;2022-11-22T16:12:49;2.45;;;0.70;;
49440;SDS011;35317;51.978;6.296;2022-11-22T16:17:52;1.42;;;0.70;;
49440;SDS011;35317;51.978;6.296;2022-11-22T16:23:23;1.02;;;0.70;;
49440;SDS011;35317;51.978;6.296;2022-11-22T16:28:30;3.05;;;0.70;;
49440;SDS011;35317;51.978;6.296;2022-11-22T16:33:35;1.42;;;0.70;;
49440;SDS011;35317;51.978;6.296;2022-11-22T16:38:37;1.42;;;0.47;;
49440;SDS011;35317;51.978;6.296;2022-11-22T16:43:38;1.42;;;0.90;;
49440;SDS011;35317;51.978;6.296;2022-11-22T16:48:39;3.03;;;1.52;;
49440;SDS011;35317;51.978;6.296;2022-11-22T16:58:47;2.70;;;1.30;;
49440;SDS011;35317;51.978;6.296;2022-11-22T17:03:50;2.30;;;1.10;;
49440;SDS011;35317;51.978;6.296;2022-11-22T17:08:55;2.17;;;1.42;;
49440;SDS011;35317;51.978;6.296;2022-11-22T17:13:58;2.25;;;1.50;;
49440;SDS011;35317;51.978;6.296;2022-11-22T17:18:59;2.72;;;1.60;;
49440;SDS011;35317;51.978;6.296;2022-11-22T17:24:01;3.80;;;1.90;;
49440;SDS011;35317;51.978;6.296;2022-11-22T17:29:12;2.97;;;2.05;;
49440;SDS011;35317;51.978;6.296;2022-11-22T17:34:13;3.72;;;2.60;;
49440;SDS011;35317;51.978;6.296;2022-11-22T17:39:14;8.18;;;4.43;;
49440;SDS011;35317;51.978;6.296;2022-11-22T17:44:15;3.85;;;3.35;;
49440;SDS011;35317;51.978;6.296;2022-11-22T17:49:16;3.80;;;3.30;;
49440;SDS011;35317;51.978;6.296;2022-11-22T17:54:17;5.07;;;4.57;;
49440;SDS011;35317;51.978;6.296;2022-11-22T17:59:18;6.82;;;5.00;;
49440;SDS011;35317;51.978;6.296;2022-11-22T18:04:19;9.23;;;5.50;;
49440;SDS011;35317;51.978;6.296;2022-11-22T18:09:19;8.65;;;7.07;;
49440;SDS011;35317;51.978;6.296;2022-11-22T18:14:20;11.20;;;7.05;;
49440;SDS011;35317;51.978;6.296;2022-11-22T18:19:22;10.77;;;7.43;;
49440;SDS011;35317;51.978;6.296;2022-11-22T18:24:23;12.55;;;8.13;;
49440;SDS011;35317;51.978;6.296;2022-11-22T18:29:24;11.27;;;7.57;;
49440;SDS011;35317;51.978;6.296;2022-11-22T18:34:25;9.13;;;7.03;;
49440;SDS011;35317;51.978;6.296;2022-11-22T18:39:27;8.90;;;7.40;;
49440;SDS011;35317;51.978;6.296;2022-11-22T18:44:29;14.27;;;7.50;;
49440;SDS011;35317;51.978;6.296;2022-11-22T18:49:33;10.93;;;7.18;;
49440;SDS011;35317;51.978;6.296;2022-11-22T18:54:34;8.80;;;7.03;;
49440;SDS011;35317;51.978;6.296;2022-11-22T18:59:34;8.90;;;6.93;;
49440;SDS011;35317;51.978;6.296;2022-11-22T19:04:35;8.73;;;6.50;;
49440;SDS011;35317;51.978;6.296;2022-11-22T19:09:36;9.70;;;6.10;;
49440;SDS011;35317;51.978;6.296;2022-11-22T19:14:36;8.93;;;6.47;;
49440;SDS011;35317;51.978;6.296;2022-11-22T19:19:37;10.15;;;6.47;;
49440;SDS011;35317;51.978;6.296;2022-11-22T19:24:38;14.40;;;6.53;;
49440;SDS011;35317;51.978;6.296;2022-11-22T19:29:40;9.27;;;6.25;;
49440;SDS011;35317;51.978;6.296;2022-11-22T19:34:41;13.25;;;7.47;;
49440;SDS011;35317;51.978;6.296;2022-11-22T19:39:42;10.80;;;6.43;;
49440;SDS011;35317;51.978;6.296;2022-11-22T19:44:43;13.18;;;7.63;;
49440;SDS011;35317;51.978;6.296;2022-11-22T19:49:43;13.98;;;7.90;;
49440;SDS011;35317;51.978;6.296;2022-11-22T19:54:44;14.95;;;7.95;;
49440;SDS011;35317;51.978;6.296;2022-11-22T19:59:45;13.43;;;7.53;;
49440;SDS011;35317;51.978;6.296;2022-11-22T20:04:46;19.40;;;8.63;;
49440;SDS011;35317;51.978;6.296;2022-11-22T20:09:46;11.27;;;8.18;;
49440;SDS011;35317;51.978;6.296;2022-11-22T20:14:49;17.83;;;10.65;;
49440;SDS011;35317;51.978;6.296;2022-11-22T20:19:49;16.98;;;9.70;;
49440;SDS011;35317;51.978;6.296;2022-11-22T20:24:50;19.30;;;10.45;;
49440;SDS011;35317;51.978;6.296;2022-11-22T20:29:51;16.73;;;9.70;;
49440;SDS011;35317;51.978;6.296;2022-11-22T20:34:52;17.80;;;10.07;;
49440;SDS011;35317;51.978;6.296;2022-11-22T20:39:53;19.45;;;11.20;;
49440;SDS011;35317;51.978;6.296;2022-11-22T20:44:53;16.17;;;10.40;;
49440;SDS011;35317;51.978;6.296;2022-11-22T20:49:54;18.00;;;9.00;;
49440;SDS011;35317;51.978;6.296;2022-11-22T20:54:55;22.83;;;9.77;;
49440;SDS011;35317;51.978;6.296;2022-11-22T20:59:56;22.92;;;10.32;;
49440;SDS011;35317;51.978;6.296;2022-11-22T21:04:57;20.35;;;9.25;;
49440;SDS011;35317;51.978;6.296;2022-11-22T21:09:57;19.13;;;7.80;;
49440;SDS011;35317;51.978;6.296;2022-11-22T21:14:58;17.08;;;7.90;;
49440;SDS011;35317;51.978;6.296;2022-11-22T21:19:59;15.07;;;6.38;;
49440;SDS011;35317;51.978;6.296;2022-11-22T21:25:00;19.35;;;6.35;;
49440;SDS011;35317;51.978;6.296;2022-11-22T21:30:03;14.77;;;6.50;;
49440;SDS011;35317;51.978;6.296;2022-11-22T21:35:11;18.52;;;6.25;;
49440;SDS011;35317;51.978;6.296;2022-11-22T21:40:12;22.92;;;6.53;;
49440;SDS011;35317;51.978;6.296;2022-11-22T21:45:13;19.58;;;7.50;;
49440;SDS011;35317;51.978;6.296;2022-11-22T21:50:14;21.23;;;6.72;;
49440;SDS011;35317;51.978;6.296;2022-11-22T21:55:15;22.27;;;7.28;;
49440;SDS011;35317;51.978;6.296;2022-11-22T22:00:16;20.08;;;7.43;;
49440;SDS011;35317;51.978;6.296;2022-11-22T22:05:17;22.90;;;7.60;;
49440;SDS011;35317;51.978;6.296;2022-11-22T22:10:18;21.77;;;7.30;;
49440;SDS011;35317;51.978;6.296;2022-11-22T22:15:19;21.42;;;6.97;;
49440;SDS011;35317;51.978;6.296;2022-11-22T22:20:20;25.45;;;6.40;;
49440;SDS011;35317;51.978;6.296;2022-11-22T22:25:21;19.90;;;6.90;;
49440;SDS011;35317;51.978;6.296;2022-11-22T22:30:22;20.15;;;6.13;;
49440;SDS011;35317;51.978;6.296;2022-11-22T22:35:23;25.90;;;6.13;;
49440;SDS011;35317;51.978;6.296;2022-11-22T22:40:24;21.48;;;6.88;;
49440;SDS011;35317;51.978;6.296;2022-11-22T22:45:25;21.40;;;7.07;;
49440;SDS011;35317;51.978;6.296;2022-11-22T22:50:25;24.15;;;7.05;;
49440;SDS011;35317;51.978;6.296;2022-11-22T22:55:26;24.88;;;7.60;;
49440;SDS011;35317;51.978;6.296;2022-11-22T23:00:27;23.90;;;8.50;;
49440;SDS011;35317;51.978;6.296;2022-11-22T23:05:27;25.80;;;8.77;;
49440;SDS011;35317;51.978;6.296;2022-11-22T23:10:31;23.30;;;7.90;;
49440;SDS011;35317;51.978;6.296;2022-11-22T23:15:32;23.67;;;7.90;;
49440;SDS011;35317;51.978;6.296;2022-11-22T23:20:33;24.67;;;9.60;;
49440;SDS011;35317;51.978;6.296;2022-11-22T23:25:34;30.58;;;9.68;;
49440;SDS011;35317;51.978;6.296;2022-11-22T23:30:35;26.60;;;9.20;;
49440;SDS011;35317;51.978;6.296;2022-11-22T23:35:36;19.52;;;9.18;;
49440;SDS011;35317;51.978;6.296;2022-11-22T23:40:37;29.40;;;9.38;;
49440;SDS011;35317;51.978;6.296;2022-11-22T23:45:43;19.75;;;9.75;;
49440;SDS011;35317;51.978;6.296;2022-11-22T23:50:45;33.80;;;10.25;;
49440;SDS011;35317;51.978;6.296;2022-11-22T23:55:46;29.42;;;11.90;;
